Station: Swan Island  

  Atmospheric Gas Attenuation - ITU Rec 676-11   ----------------- dB/100km -----------------
Date Time Temp RH % AH g/m3 Dew Point Wind Direction Speed kph Gust kph Barometer mB Rainfall Since 9am 24GHz 47GHz 76GHz 122GHz 134GHz 241GHz
08/05 12:30 16.8 48 6.86 5.7 20 33 1014.6 0 15.8 22.5 31.9 83.4 73.4 251.3
08/05 12:20 16.8 47 6.72 5.4 22 26 1014.7 0 15.5 22.3 31.4 82.0 71.8 245.5
08/05 12:10 16.8 50 7.15 6.3 24 30 1014.8 0 16.4 22.9 33.0 86.2 76.9 263.5
08/05 12:00 16.7 48 6.82 5.6 22 32 1014.8 0 15.7 22.4 31.8 83.1 73.0 250.0
08/05 11:50 16.9 47 6.76 5.5 22 26 1014.7 0 15.5 22.3 31.5 82.3 72.1 246.8
08/05 11:40 16.5 50 7.02 6 20 24 1014.7 0 16.1 22.8 32.6 85.2 75.6 259.0
08/05 11:30 16.4 49 6.84 5.7 15 26 1014.7 0 15.7 22.5 32.0 83.6 73.5 251.7
08/05 11:20 16.2 48 6.62 5.2 17 26 1014.5 0 15.3 22.3 31.3 81.7 71.1 243.1
08/05 11:10 16.1 48 6.58 5.1 19 28 1014.5 0 15.2 22.2 31.2 81.4 70.7 241.7
08/05 11:00 15.8 47 6.33 4.5 19 30 1014.4 0 14.7 21.9 30.4 79.3 68.0 232.2
08/05 10:50 16.2 49 6.76 5.7 9 15 1014.4 0 15.6 22.5 31.8 83.0 72.8 248.9
08/05 10:40 15.9 47 6.36 4.6 9 17 1014.2 0 14.7 21.9 30.4 79.4 68.3 233.1
08/05 10:30 15.6 49 6.52 4.9 17 28 1014 0 15.1 22.2 31.1 81.3 70.4 240.6
08/05 10:20 15.6 48 6.38 4.6 17 24 1013.8 0 14.8 22.0 30.6 79.9 68.7 234.7
08/05 10:10 15.5 49 6.48 4.8 19 20 1013.8 0 15.0 22.2 31.0 81.0 70.0 239.2
08/05 10:00 15.4 51 6.7 5.3 17 28 1013.3 0 15.5 22.5 31.8 83.1 72.7 248.6
08/05 09:50 15.4 54 7.09 6.1 15 19 1013.1 0 16.3 23.1 33.2 87.0 77.4 265.2
08/05 09:40 15.4 55 7.23 6.6 11 15 1013 0 16.6 23.3 33.8 88.3 79.1 271.2
08/05 09:30 15.1 54 6.97 5.9 13 24 1012.9 0 16.1 23.0 32.9 86.1 76.2 261.0
08/05 09:20 14.9 55 7.01 5.9 20 24 1012.8 0 16.2 23.1 33.1 86.7 76.9 263.3
08/05 09:10 14.6 54 6.76 5.6 17 24 1012.7 0 15.6 22.8 32.3 84.5 74.1 253.5
08/05 09:00 14.5 57 7.09 6.1 15 26 1012.5 0 16.3 23.3 33.6 87.9 78.3 268.0
08/05 08:50 14.3 60 7.37 6.6 15 19 1012.3 16.9 23.8 34.7 90.9 81.9 280.9
08/05 08:40 14.2 62 7.57 7 11 17 1012 17.4 24.1 35.5 93.0 84.5 290.0
08/05 08:30 14 62 7.48 6.8 13 19 1011.7 17.2 24.0 35.2 92.3 83.6 286.6
08/05 08:20 13.8 65 7.74 7.3 11 17 1011.6 17.8 24.5 36.3 95.2 87.1 298.9
08/05 08:10 13.5 64 7.49 6.8 15 22 1011.4 17.2 24.1 35.5 93.0 84.2 288.8
08/05 08:00 13.4 63 7.32 6.5 17 26 1011.1 16.9 23.9 34.9 91.3 82.2 281.6
08/05 07:50 13.2 64 7.35 6.7 20 26 1011 16.9 24.0 35.1 91.8 82.7 283.6
08/05 07:40 13.1 64 7.3 6.6 17 20 1011 16.8 23.9 34.9 91.4 82.2 281.7
08/05 07:30 12.9 65 7.33 6.5 17 26 1010.7 16.9 24.0 35.1 92.0 82.8 283.7
08/05 07:20 12.9 64 7.21 6.4 17 20 1010.4 16.7 23.8 34.6 90.7 81.2 278.3
08/05 07:10 12.8 65 7.28 6.4 20 24 1010.1 16.8 24.0 34.9 91.5 82.2 281.7
08/05 07:00 12.7 65 7.24 6.3 19 28 1010 16.7 23.9 34.8 91.2 81.8 280.2
08/05 06:50 12.6 65 7.19 6.2 19 24 1009.7 16.6 23.9 34.7 90.8 81.2 278.3
08/05 06:40 12.8 63 7.06 6.1 22 28 1009.5 16.3 23.6 34.1 89.2 79.4 271.8
08/05 06:30 12.8 65 7.28 6.4 22 32 1009.3 16.8 23.9 34.9 91.4 82.1 281.5
08/05 06:20 12.9 64 7.21 6.4 24 33 1009.3 16.7 23.8 34.6 90.6 81.2 278.0
08/05 06:10 12.8 65 7.28 6.4 24 28 1009.2 16.8 23.9 34.9 91.4 82.1 281.5
08/05 06:00 12.6 66 7.3 6.4 19 28 1009 16.9 24.0 35.1 91.8 82.6 283.0
08/05 05:50 12.6 66 7.3 6.4 19 24 1008.9 16.9 24.0 35.0 91.8 82.6 283.0
08/05 05:40 12.3 66 7.17 6.1 17 20 1008.7 16.6 23.9 34.7 90.8 81.2 278.2
08/05 05:30 12.4 66 7.21 6.2 19 33 1008.6 16.7 23.9 34.8 91.1 81.6 279.6
08/05 05:20 12.4 67 7.32 6.4 17 24 1008.4 16.9 24.1 35.2 92.2 83.0 284.5
08/05 05:10 12.7 65 7.24 6.3 24 33 1008.2 16.7 23.9 34.7 91.0 81.7 279.8
08/05 05:00 12.7 68 7.57 7 22 30 1008.1 17.4 24.4 36.0 94.4 85.9 294.6
08/05 04:50 12.5 71 7.81 7.4 24 33 1008.1 18.0 24.8 37.1 97.2 89.2 306.2
08/05 04:40 12.5 72 7.92 7.6 20 28 1008 18.2 25.0 37.5 98.3 90.6 311.2
08/05 04:30 12.5 73 8.03 7.8 22 33 1007.8 18.4 25.1 37.9 99.5 92.1 316.2
08/05 04:20 12.3 74 8.04 7.8 24 33 1007.6 18.5 25.2 38.0 99.8 92.4 317.4
08/05 04:10 12.1 75 8.04 7.8 13 20 1007.7 18.5 25.3 38.1 100.1 92.7 318.2
08/05 04:00 12.2 75 8.09 7.9 15 22 1007.7 18.6 25.3 38.3 100.5 93.2 320.1
08/05 03:50 12.4 75 8.2 8.1 15 20 1007.6 18.8 25.4 38.6 101.4 94.4 324.4
08/05 03:40 12.4 75 8.2 8.1 11 15 1007.5 18.8 25.4 38.6 101.4 94.4 324.3
08/05 03:30 12.5 75 8.25 8.2 15 22 1007.4 18.9 25.5 38.8 101.8 94.9 326.2
08/05 03:20 12.8 73 8.18 8.2 13 17 1007.1 0 18.7 25.3 38.3 100.6 93.6 321.7
08/05 03:10 13 74 8.39 8.6 26 35 1006.9 0 19.2 25.5 39.1 102.6 96.1 330.5
08/05 03:00 13 78 8.85 9.3 20 30 1006.9 20.2 26.3 40.9 107.6 102.2 351.9
08/05 02:50 13.2 79 9.07 9.6 15 22 1007 20.6 26.6 41.7 109.7 104.9 361.4
08/05 02:40 13.5 81 9.47 10.3 15 24 1006.9 21.5 27.2 43.2 113.7 109.9 378.9
08/05 02:30 13.7 80 9.47 10.3 20 33 1006.9 21.5 27.1 43.1 113.4 109.6 377.9
08/05 02:20 14.1 79 9.59 10.5 22 30 1006.9 21.7 27.2 43.4 114.1 110.7 381.7
08/05 02:10 14.5 79 9.83 10.9 26 37 1006.7 22.2 27.5 44.1 116.1 113.4 391.0
08/05 02:00 14.5 79 9.83 10.9 32 48 1006.6 22.2 27.5 44.1 116.1 113.4 391.0
08/05 01:50 14.4 78 9.64 10.6 37 43 1006.6 21.8 27.2 43.4 114.2 110.9 382.5
08/05 01:40 14.5 79 9.83 10.9 32 35 1006.6 22.2 27.5 44.1 116.1 113.4 391.0
08/05 01:30 14.4 78 9.64 10.6 37 56 1006.6 21.8 27.2 43.4 114.2 110.9 382.5
08/05 01:20 14.4 79 9.77 10.8 33 41 1006.9 22.1 27.4 44.0 115.6 112.7 388.7
08/05 01:10 14.2 78 9.52 10.4 39 44 1007 21.5 27.0 43.0 113.2 109.6 377.9
08/05 01:00 14.2 77 9.4 10.2 37 50 1007.1 21.3 26.8 42.6 111.9 108.0 372.2
08/05 00:50 14.3 78 9.58 10.5 33 43 1007.2 21.7 27.1 43.2 113.7 110.3 380.3
08/05 00:40 14.3 78 9.58 10.5 35 48 1007.2 21.7 27.1 43.2 113.7 110.3 380.3
08/05 00:30 14.2 77 9.4 10.2 41 56 1007.1 21.3 26.8 42.6 111.9 108.0 372.2
08/05 00:20 14.1 78 9.47 10.3 41 48 1007.2 21.4 27.0 42.9 112.8 109.1 376.1
08/05 00:10 14 77 9.29 10 33 48 1007.4 21.1 26.7 42.2 111.0 106.8 368.1
08/05 00:00 14 77 9.29 10 33 52 1007.7 21.1 26.8 42.2 111.0 106.9 368.2
07/05 23:50 13.9 77 9.23 9.9 37 50 1007.7 20.9 26.7 42.0 110.5 106.2 365.8
07/05 23:40 13.9 78 9.35 10.1 35 44 1007.7 21.2 26.9 42.5 111.8 107.8 371.5
07/05 23:30 13.8 78 9.29 10 39 54 1007.7 21.1 26.8 42.3 111.3 107.1 369.1
07/05 23:20 14 78 9.41 10.2 32 43 1007.8 21.3 27.0 42.7 112.4 108.5 373.9
07/05 23:10 13.9 77 9.23 9.9 39 54 1007.9 20.9 26.7 42.1 110.6 106.2 365.9
07/05 23:00 13.9 78 9.35 10.1 33 52 1008.3 21.2 26.9 42.6 111.9 107.9 371.7
07/05 22:50 13.7 77 9.12 9.7 37 54 1008.6 20.7 26.6 41.7 109.7 105.1 361.9
07/05 22:40 13.6 79 9.3 10 32 41 1008.7 21.1 26.9 42.5 111.8 107.6 370.9
07/05 22:30 13.7 78 9.24 9.9 35 56 1009 21.0 26.8 42.3 111.1 106.7 367.6
07/05 22:20 13.4 80 9.3 10 41 48 1008.8 21.1 27.0 42.7 112.1 107.9 371.8
07/05 22:10 13.1 82 9.36 10.1 39 48 1009 21.3 27.2 43.1 113.3 109.2 376.2
07/05 22:00 13.1 80 9.13 9.7 37 50 1009.2 20.8 26.8 42.1 110.7 106.1 365.3
07/05 21:50 12.8 78 8.74 9 41 50 1009.8 19.9 26.3 40.7 106.9 101.3 348.4
07/05 21:40 12.6 80 8.85 9.2 30 37 1010 20.2 26.5 41.3 108.4 103.0 354.6
07/05 21:30 12.9 78 8.79 9.2 35 50 1010.1 20.0 26.3 40.9 107.4 101.8 350.4
07/05 21:20 12.5 75 8.25 8.2 33 44 1010.4 18.9 25.6 38.9 102.1 95.2 327.0
07/05 21:10 12.7 74 8.24 8.3 32 44 1010.7 0.8 18.9 25.5 38.8 101.8 94.8 325.8
07/05 21:00 12.3 74 8.04 7.8 33 46 1010.9 18.5 25.3 38.2 100.2 92.7 318.3
07/05 20:50 12.4 74 8.09 7.9 33 39 1011.1 18.6 25.4 38.3 100.6 93.2 320.2
07/05 20:40 12.3 75 8.14 8 28 39 1011.3 18.7 25.5 38.6 101.3 94.0 323.0
07/05 20:30 11.9 74 7.84 7.4 35 50 1011.5 18.1 25.1 37.6 98.6 90.6 310.8
07/05 20:20 11.8 76 8 7.7 28 39 1011.8 18.4 25.4 38.3 100.5 92.8 318.7
07/05 20:10 11.6 75 7.8 7.3 32 41 1011.9 18.0 25.2 37.6 98.6 90.4 310.2
07/05 20:00 11.4 76 7.8 7.3 32 50 1012.1 18.0 25.2 37.7 98.8 90.7 311.1

Last Refresh: 08-May-2026 12:07:37

Bureau of Meteorology